Time;durP1;ratioP1;P1;durP2;ratioP2;P2;SDS_P1;SDS_P2;PMS_P1;PMS_P2;Temp;Humidity;BMP_temperature;BMP_pressure;BME280_temperature;BME280_humidity;BME280_pressure;Samples;Min_cycle;Max_cycle;Signal;HPM_P1;HPM_P2
2021/12/21 00:00:27;;;;;;;5.70;1.80;;;;;;;;;;5043560;28;20017;-55
2021/12/21 00:02:53;;;;;;;4.07;1.92;;;;;;;;;;5045187;28;20032;-58
2021/12/21 00:05:21;;;;;;;5.68;2.03;;;;;;;;;;5040690;28;20056;-54
2021/12/21 00:07:50;;;;;;;4.75;1.70;;;;;;;;;;5044056;28;20043;-56
2021/12/21 00:10:17;;;;;;;4.15;1.80;;;;;;;;;;5041253;28;20398;-55
2021/12/21 00:18:17;;;;;;;4.47;1.70;;;;;;;;;;5043386;28;20036;-54
2021/12/21 00:23:30;;;;;;;3.95;1.90;;;;;;;;;;5043420;28;20425;-57
2021/12/21 00:26:06;;;;;;;4.07;1.70;;;;;;;;;;5040993;28;20147;-54
2021/12/21 00:28:38;;;;;;;6.35;1.98;;;;;;;;;;5042457;28;20040;-58
2021/12/21 00:31:04;;;;;;;3.22;1.65;;;;;;;;;;5042778;28;20117;-57
2021/12/21 00:33:30;;;;;;;2.58;1.38;;;;;;;;;;5043514;28;20024;-56
2021/12/21 00:35:55;;;;;;;6.05;1.80;;;;;;;;;;5041885;28;21471;-53
2021/12/21 00:38:21;;;;;;;4.22;1.27;;;;;;;;;;5024322;28;20039;-58
2021/12/21 00:40:46;;;;;;;4.35;1.63;;;;;;;;;;5040848;28;20035;-53
2021/12/21 00:43:11;;;;;;;5.15;2.10;;;;;;;;;;5040128;28;20073;-55
2021/12/21 00:45:37;;;;;;;6.07;1.92;;;;;;;;;;5042226;28;20032;-56
2021/12/21 00:48:03;;;;;;;5.50;1.83;;;;;;;;;;5042547;28;20021;-58
2021/12/21 00:50:29;;;;;;;4.75;1.60;;;;;;;;;;5040674;28;20033;-58
2021/12/21 00:52:54;;;;;;;6.18;1.67;;;;;;;;;;5041430;28;20055;-54
2021/12/21 00:55:21;;;;;;;2.70;1.52;;;;;;;;;;5040337;28;20419;-57
2021/12/21 00:57:47;;;;;;;7.25;2.30;;;;;;;;;;5040534;28;20025;-56
2021/12/21 01:00:14;;;;;;;6.50;2.60;;;;;;;;;;5042386;28;20029;-58
2021/12/21 01:02:41;;;;;;;4.18;2.20;;;;;;;;;;5038749;28;20033;-57
2021/12/21 01:05:16;;;;;;;4.78;2.35;;;;;;;;;;5040255;28;20124;-52
2021/12/21 01:07:45;;;;;;;5.30;2.72;;;;;;;;;;5041827;28;20035;-57
2021/12/21 01:14:02;;;;;;;12.15;3.17;;;;;;;;;;5042667;28;20060;-52
2021/12/21 01:16:01;;;;;;;8.45;2.50;;;;;;;;;;5030088;28;20037;-56
2021/12/21 01:18:36;;;;;;;6.43;2.13;;;;;;;;;;5055126;28;20039;-58
2021/12/21 01:21:07;;;;;;;6.72;2.17;;;;;;;;;;5063736;28;20059;-57
2021/12/21 01:28:58;;;;;;;7.47;2.47;;;;;;;;;;4930235;28;20048;-55
2021/12/21 01:36:43;;;;;;;8.80;2.70;;;;;;;;;;4631420;30;20034;-55
2021/12/21 01:42:13;;;;;;;5.43;2.28;;;;;;;;;;5168763;27;20121;-56
2021/12/21 01:49:51;;;;;;;5.38;2.40;;;;;;;;;;5027364;28;20091;-54
2021/12/21 01:52:23;;;;;;;5.00;2.40;;;;;;;;;;5001492;28;20424;-56
2021/12/21 01:54:50;;;;;;;9.18;2.58;;;;;;;;;;4920150;28;20616;-57
2021/12/21 01:57:16;;;;;;;8.15;2.38;;;;;;;;;;4845604;29;20550;-57
2021/12/21 01:59:43;;;;;;;4.88;2.13;;;;;;;;;;4741393;29;20043;-58
2021/12/21 02:02:10;;;;;;;5.22;2.53;;;;;;;;;;4648570;30;20051;-57
2021/12/21 02:07:27;;;;;;;4.30;2.22;;;;;;;;;;5171316;27;20121;-52
2021/12/21 02:09:52;;;;;;;5.63;2.10;;;;;;;;;;5147004;27;20034;-52
2021/12/21 02:12:20;;;;;;;3.72;2.20;;;;;;;;;;5127518;27;20046;-52
2021/12/21 02:14:52;;;;;;;6.68;2.13;;;;;;;;;;5102657;27;20024;-56
2021/12/21 02:22:50;;;;;;;7.97;2.45;;;;;;;;;;4775506;29;20130;-55
2021/12/21 02:28:10;;;;;;;6.75;2.22;;;;;;;;;;4560793;30;20505;-51
2021/12/21 02:32:53;;;;;;;7.60;2.15;;;;;;;;;;5146544;27;20214;-54
2021/12/21 02:35:19;;;;;;;6.70;2.53;;;;;;;;;;5161295;27;20027;-55
2021/12/21 02:37:45;;;;;;;6.38;2.53;;;;;;;;;;5156571;27;20088;-50
2021/12/21 02:40:11;;;;;;;8.20;2.28;;;;;;;;;;5134155;27;20030;-53
2021/12/21 02:42:37;;;;;;;5.32;2.63;;;;;;;;;;5044720;28;20587;-53
2021/12/21 02:45:04;;;;;;;6.63;2.58;;;;;;;;;;4941435;28;20067;-53
2021/12/21 02:47:29;;;;;;;8.15;2.35;;;;;;;;;;4820092;29;20082;-51
2021/12/21 02:49:55;;;;;;;7.20;2.33;;;;;;;;;;4740154;29;20028;-54
2021/12/21 02:52:20;;;;;;;7.22;2.55;;;;;;;;;;4659002;30;20102;-50
2021/12/21 02:57:18;;;;;;;7.07;2.17;;;;;;;;;;5152530;27;20621;-51
2021/12/21 02:59:43;;;;;;;7.75;2.42;;;;;;;;;;5142913;27;20038;-50
2021/12/21 03:02:09;;;;;;;7.05;2.10;;;;;;;;;;5121188;27;20030;-54
2021/12/21 03:04:34;;;;;;;3.95;2.10;;;;;;;;;;5107878;27;20028;-51
2021/12/21 03:07:31;;;;;;;4.82;1.77;;;;;;;;;;5087784;27;20026;-50
2021/12/21 03:09:59;;;;;;;4.38;2.15;;;;;;;;;;4976983;28;20037;-55
2021/12/21 03:13:51;;;;;;;4.40;1.77;;;;;;;;;;4940513;28;20057;-53
2021/12/21 03:15:14;;;;;;;4.30;1.98;;;;;;;;;;4791884;29;20463;-50
2021/12/21 03:17:39;;;;;;;7.70;2.95;;;;;;;;;;4663824;30;20158;-51
2021/12/21 03:22:21;;;;;;;4.05;1.92;;;;;;;;;;5150831;27;20133;-53
2021/12/21 03:24:46;;;;;;;3.42;1.67;;;;;;;;;;5154390;27;20037;-52
2021/12/21 03:27:12;;;;;;;6.65;2.38;;;;;;;;;;5121579;27;20042;-49
2021/12/21 03:29:37;;;;;;;5.15;1.95;;;;;;;;;;5109531;27;20044;-55
2021/12/21 03:32:03;;;;;;;4.40;2.22;;;;;;;;;;5069848;28;20052;-51
2021/12/21 03:34:29;;;;;;;5.57;1.95;;;;;;;;;;5028939;28;20033;-54
2021/12/21 03:36:55;;;;;;;5.55;2.17;;;;;;;;;;4967109;28;20039;-50
2021/12/21 03:39:22;;;;;;;3.85;1.75;;;;;;;;;;4807918;29;20027;-50
2021/12/21 03:41:51;;;;;;;5.93;1.70;;;;;;;;;;4681774;30;20081;-51
2021/12/21 03:46:56;;;;;;;5.72;1.63;;;;;;;;;;5150824;27;20202;-50
2021/12/21 03:52:01;;;;;;;4.25;1.73;;;;;;;;;;5118105;27;20035;-51
2021/12/21 03:54:27;;;;;;;5.18;2.00;;;;;;;;;;5120008;27;20039;-48
2021/12/21 03:56:52;;;;;;;6.28;2.10;;;;;;;;;;5118286;27;20024;-52
2021/12/21 03:59:20;;;;;;;6.32;2.00;;;;;;;;;;5118626;27;20112;-50
2021/12/21 04:01:47;;;;;;;5.35;2.20;;;;;;;;;;5119561;27;20042;-49
2021/12/21 04:04:12;;;;;;;6.05;2.40;;;;;;;;;;5116799;27;20027;-50
2021/12/21 04:06:38;;;;;;;4.32;2.20;;;;;;;;;;5119417;27;20340;-49
2021/12/21 04:09:06;;;;;;;5.35;2.65;;;;;;;;;;5117577;27;20031;-50
2021/12/21 04:11:32;;;;;;;4.80;2.58;;;;;;;;;;5117446;27;20461;-49
2021/12/21 04:13:58;;;;;;;6.47;2.70;;;;;;;;;;5114617;27;20039;-51
2021/12/21 04:16:24;;;;;;;4.85;2.28;;;;;;;;;;5100108;28;20016;-50
2021/12/21 04:18:49;;;;;;;5.55;1.90;;;;;;;;;;5082906;28;20036;-50
2021/12/21 04:21:15;;;;;;;8.38;2.50;;;;;;;;;;5097470;28;20035;-49
2021/12/21 04:23:42;;;;;;;6.45;2.72;;;;;;;;;;5097690;28;20180;-50
2021/12/21 04:26:10;;;;;;;6.82;2.58;;;;;;;;;;5098249;28;20071;-49
2021/12/21 04:28:35;;;;;;;4.22;1.77;;;;;;;;;;5098094;28;20056;-49
2021/12/21 04:31:02;;;;;;;6.78;2.17;;;;;;;;;;5082903;28;20036;-50
2021/12/21 04:33:27;;;;;;;5.07;2.00;;;;;;;;;;5099928;28;20024;-49
2021/12/21 04:35:53;;;;;;;4.63;2.25;;;;;;;;;;5098073;28;20028;-49
2021/12/21 04:38:23;;;;;;;5.93;2.00;;;;;;;;;;5098894;28;20031;-53
2021/12/21 04:40:55;;;;;;;4.00;1.90;;;;;;;;;;5099120;28;20062;-51
2021/12/21 04:43:21;;;;;;;6.70;2.47;;;;;;;;;;5097095;28;20106;-53
2021/12/21 04:45:46;;;;;;;5.40;2.13;;;;;;;;;;5097199;28;20111;-51
2021/12/21 04:48:12;;;;;;;4.07;2.10;;;;;;;;;;5084750;28;20093;-49
2021/12/21 04:50:38;;;;;;;5.05;2.60;;;;;;;;;;5096961;28;20071;-52
2021/12/21 04:53:03;;;;;;;3.58;1.92;;;;;;;;;;5098503;28;20031;-49
2021/12/21 04:55:28;;;;;;;3.08;1.55;;;;;;;;;;5099340;28;20034;-49
2021/12/21 04:57:54;;;;;;;4.85;2.10;;;;;;;;;;5086265;28;20191;-52
2021/12/21 05:00:19;;;;;;;4.93;1.95;;;;;;;;;;5084046;28;20730;-54
2021/12/21 05:02:45;;;;;;;4.40;2.30;;;;;;;;;;5083015;28;20095;-51
2021/12/21 05:05:10;;;;;;;3.28;1.88;;;;;;;;;;5083856;28;20047;-49
2021/12/21 05:07:38;;;;;;;7.82;2.40;;;;;;;;;;5083347;28;20016;-49
2021/12/21 05:10:08;;;;;;;5.85;2.05;;;;;;;;;;5083032;28;20039;-50
2021/12/21 05:12:33;;;;;;;4.47;2.00;;;;;;;;;;5082318;28;20020;-50
2021/12/21 05:14:59;;;;;;;7.53;2.45;;;;;;;;;;5084522;28;20102;-53
2021/12/21 05:17:24;;;;;;;9.38;2.53;;;;;;;;;;5085328;28;20067;-50
2021/12/21 05:19:50;;;;;;;6.82;2.05;;;;;;;;;;5083562;28;20131;-51
2021/12/21 05:22:16;;;;;;;5.38;2.30;;;;;;;;;;5084272;28;20111;-52
2021/12/21 05:24:43;;;;;;;6.25;2.78;;;;;;;;;;5083204;28;20040;-49
2021/12/21 05:27:10;;;;;;;7.22;2.72;;;;;;;;;;5084470;28;20028;-51
2021/12/21 05:29:36;;;;;;;8.15;1.75;;;;;;;;;;5083342;28;20056;-49
2021/12/21 05:32:03;;;;;;;4.85;1.90;;;;;;;;;;5082112;28;20051;-51
2021/12/21 05:34:29;;;;;;;5.47;2.50;;;;;;;;;;5082949;28;20036;-51
2021/12/21 05:36:55;;;;;;;8.00;2.63;;;;;;;;;;5082860;28;20019;-50
2021/12/21 05:39:24;;;;;;;10.32;3.83;;;;;;;;;;5084733;28;20145;-49
2021/12/21 05:41:52;;;;;;;9.60;3.05;;;;;;;;;;5083087;28;20028;-53
2021/12/21 05:44:20;;;;;;;12.13;3.42;;;;;;;;;;5081839;28;20040;-51
2021/12/21 05:46:46;;;;;;;15.75;5.22;;;;;;;;;;5082603;28;20055;-49
2021/12/21 05:49:12;;;;;;;17.05;6.15;;;;;;;;;;5096445;28;20095;-51
2021/12/21 05:51:37;;;;;;;15.02;5.88;;;;;;;;;;5101941;27;20166;-49
2021/12/21 05:54:03;;;;;;;9.75;4.03;;;;;;;;;;5102112;27;20035;-50
2021/12/21 05:56:28;;;;;;;7.65;3.13;;;;;;;;;;5089712;27;20109;-50
2021/12/21 05:58:54;;;;;;;10.68;3.72;;;;;;;;;;5008616;28;20035;-49
2021/12/21 06:01:19;;;;;;;5.97;2.65;;;;;;;;;;4889831;28;20041;-49
2021/12/21 06:03:44;;;;;;;11.57;3.65;;;;;;;;;;4807829;29;20125;-54
2021/12/21 06:06:13;;;;;;;12.35;3.90;;;;;;;;;;4781229;29;20206;-49
2021/12/21 06:08:40;;;;;;;13.15;4.53;;;;;;;;;;4681216;30;20041;-51
2021/12/21 06:11:07;;;;;;;9.95;3.25;;;;;;;;;;4645566;30;20699;-50
2021/12/21 06:13:59;;;;;;;6.22;2.65;;;;;;;;;;4539811;31;20046;-48
2021/12/21 06:25:53;;;;;;;10.38;4.03;;;;;;;;;;5040446;28;20068;-48
2021/12/21 06:28:19;;;;;;;11.18;4.13;;;;;;;;;;4979461;28;20126;-49
2021/12/21 06:30:44;;;;;;;11.73;3.70;;;;;;;;;;4909743;28;20092;-49
2021/12/21 06:33:10;;;;;;;10.45;3.42;;;;;;;;;;4878723;28;20042;-52
2021/12/21 06:35:36;;;;;;;7.80;3.35;;;;;;;;;;4778934;29;20463;-50
2021/12/21 06:38:02;;;;;;;7.68;3.03;;;;;;;;;;4705863;29;20180;-50
2021/12/21 06:42:41;;;;;;;7.93;2.20;;;;;;;;;;5132357;27;20123;-44
2021/12/21 06:45:15;;;;;;;7.93;2.30;;;;;;;;;;5096735;27;1282086;-47
2021/12/21 06:53:10;;;;;;;11.45;2.42;;;;;;;;;;5056987;28;20078;-47
2021/12/21 06:55:36;;;;;;;5.47;2.35;;;;;;;;;;5057457;28;20032;-45
2021/12/21 06:58:02;;;;;;;12.57;2.97;;;;;;;;;;5057680;28;20996;-49
2021/12/21 07:00:27;;;;;;;11.82;2.88;;;;;;;;;;5060381;28;20036;-51
2021/12/21 07:02:53;;;;;;;14.23;3.05;;;;;;;;;;5057858;28;20035;-48
2021/12/21 07:05:18;;;;;;;5.57;2.17;;;;;;;;;;5058737;28;20074;-48
2021/12/21 07:07:44;;;;;;;9.85;3.40;;;;;;;;;;5059106;28;20017;-45
2021/12/21 07:10:19;;;;;;;8.88;3.70;;;;;;;;;;5057472;28;20024;-50
2021/12/21 07:20:32;;;;;;;14.50;4.60;;;;;;;;;;5053452;28;20112;-46
2021/12/21 07:22:57;;;;;;;18.15;5.10;;;;;;;;;;5052764;28;20119;-46
2021/12/21 07:25:25;;;;;;;9.80;3.40;;;;;;;;;;5053759;28;20032;-45
2021/12/21 07:27:52;;;;;;;11.00;3.58;;;;;;;;;;5049295;28;20048;-48
2021/12/21 07:30:18;;;;;;;9.73;3.65;;;;;;;;;;5052334;28;20130;-46
2021/12/21 07:32:43;;;;;;;12.15;5.15;;;;;;;;;;5051188;28;20147;-47
2021/12/21 07:35:09;;;;;;;31.60;9.10;;;;;;;;;;5052546;28;20040;-46
2021/12/21 07:37:35;;;;;;;26.30;9.10;;;;;;;;;;5052779;28;20412;-45
2021/12/21 07:40:02;;;;;;;30.50;8.80;;;;;;;;;;5049267;28;20384;-48
2021/12/21 07:42:28;;;;;;;23.95;8.55;;;;;;;;;;5051355;28;20087;-48
2021/12/21 07:44:53;;;;;;;24.88;8.35;;;;;;;;;;5054399;28;20047;-47
2021/12/21 07:47:19;;;;;;;17.30;8.63;;;;;;;;;;5090132;28;20429;-48
2021/12/21 07:49:44;;;;;;;24.70;10.45;;;;;;;;;;5101712;28;20089;-46
2021/12/21 07:52:10;;;;;;;21.13;10.40;;;;;;;;;;5031880;28;20041;-51
2021/12/21 07:54:36;;;;;;;20.98;8.93;;;;;;;;;;4948025;28;20040;-46
2021/12/21 07:57:02;;;;;;;19.60;8.07;;;;;;;;;;4856910;29;20086;-49
2021/12/21 07:59:27;;;;;;;17.77;7.28;;;;;;;;;;4762544;29;20538;-51
2021/12/21 08:01:53;;;;;;;22.63;7.07;;;;;;;;;;4649567;30;20079;-50
2021/12/21 08:04:22;;;;;;;25.08;7.35;;;;;;;;;;4592891;30;20716;-49
2021/12/21 08:09:12;;;;;;;17.35;6.60;;;;;;;;;;5151357;27;20141;-51
2021/12/21 08:14:05;;;;;;;14.25;5.57;;;;;;;;;;5139662;27;20115;-51
2021/12/21 08:16:31;;;;;;;14.18;5.07;;;;;;;;;;5084754;27;20107;-52
2021/12/21 08:18:56;;;;;;;14.57;4.95;;;;;;;;;;5024994;28;20034;-49
2021/12/21 08:21:24;;;;;;;13.32;5.30;;;;;;;;;;4952872;28;20368;-52
2021/12/21 08:23:50;;;;;;;26.10;5.88;;;;;;;;;;4843921;29;20039;-48
2021/12/21 08:26:16;;;;;;;15.65;5.32;;;;;;;;;;4707203;30;20041;-50
2021/12/21 08:28:41;;;;;;;16.63;4.88;;;;;;;;;;4672415;30;20074;-52
2021/12/21 08:31:12;;;;;;;11.65;4.78;;;;;;;;;;4528757;30;20043;-50
2021/12/21 08:35:46;;;;;;;14.95;4.78;;;;;;;;;;5171360;27;20130;-45
2021/12/21 08:38:15;;;;;;;8.35;4.05;;;;;;;;;;5143839;27;20019;-49
2021/12/21 08:40:43;;;;;;;15.18;4.53;;;;;;;;;;5126918;27;20744;-47
2021/12/21 08:43:11;;;;;;;12.43;4.30;;;;;;;;;;5101513;27;20028;-47
2021/12/21 08:45:39;;;;;;;17.10;4.18;;;;;;;;;;5083083;28;20037;-45
2021/12/21 08:48:05;;;;;;;13.43;4.13;;;;;;;;;;5022189;28;20054;-46
2021/12/21 08:50:31;;;;;;;7.22;3.75;;;;;;;;;;4907046;28;20042;-48
2021/12/21 08:52:58;;;;;;;10.45;3.58;;;;;;;;;;4835935;29;20491;-46
2021/12/21 08:55:23;;;;;;;8.95;3.78;;;;;;;;;;4820634;29;20227;-47
2021/12/21 09:01:04;;;;;;;7.03;3.13;;;;;;;;;;5109931;27;20140;-56
2021/12/21 09:03:29;;;;;;;8.50;3.33;;;;;;;;;;5085807;28;20113;-53
2021/12/21 09:05:54;;;;;;;7.07;3.50;;;;;;;;;;5073246;28;20493;-50
2021/12/21 09:08:20;;;;;;;12.88;4.05;;;;;;;;;;5086405;28;20068;-50
2021/12/21 09:10:46;;;;;;;14.40;3.15;;;;;;;;;;5054925;28;20462;-49
2021/12/21 09:13:12;;;;;;;9.35;3.45;;;;;;;;;;4990176;28;20097;-54
2021/12/21 09:15:38;;;;;;;7.82;3.20;;;;;;;;;;4914988;28;20442;-51
2021/12/21 09:18:04;;;;;;;6.63;2.53;;;;;;;;;;4895739;28;20363;-51
2021/12/21 09:20:31;;;;;;;11.00;3.42;;;;;;;;;;4802052;29;20101;-49
2021/12/21 09:22:58;;;;;;;6.13;2.60;;;;;;;;;;4698962;30;20128;-51
2021/12/21 09:27:36;;;;;;;4.30;2.40;;;;;;;;;;5153420;27;20534;-47
2021/12/21 09:30:04;;;;;;;4.00;2.50;;;;;;;;;;5136405;27;20389;-49
2021/12/21 09:32:30;;;;;;;6.10;3.00;;;;;;;;;;5163438;27;20467;-47
2021/12/21 09:34:55;;;;;;;7.93;2.40;;;;;;;;;;5140055;27;20046;-45
2021/12/21 09:37:21;;;;;;;17.88;2.83;;;;;;;;;;5108319;27;20090;-45
2021/12/21 09:39:49;;;;;;;5.63;2.42;;;;;;;;;;5013436;28;20387;-48
2021/12/21 09:42:17;;;;;;;5.97;2.65;;;;;;;;;;4906040;28;20405;-49
2021/12/21 09:44:43;;;;;;;8.60;2.83;;;;;;;;;;4801894;29;20044;-48
2021/12/21 09:47:10;;;;;;;5.53;2.70;;;;;;;;;;4676656;30;20049;-47
2021/12/21 09:49:37;;;;;;;5.03;2.70;;;;;;;;;;4559998;30;20525;-45
2021/12/21 09:53:18;;;;;;;5.30;2.67;;;;;;;;;;5170920;27;20476;-44
2021/12/21 09:55:43;;;;;;;12.00;3.17;;;;;;;;;;5157137;27;20041;-45
2021/12/21 09:58:09;;;;;;;8.88;3.75;;;;;;;;;;5149448;27;20030;-46
2021/12/21 10:00:34;;;;;;;7.88;3.25;;;;;;;;;;5095136;27;20415;-44
2021/12/21 10:03:04;;;;;;;7.85;3.90;;;;;;;;;;5041717;28;20172;-47
2021/12/21 10:05:34;;;;;;;9.93;3.80;;;;;;;;;;4991538;28;20030;-46
2021/12/21 10:08:15;;;;;;;7.97;3.70;;;;;;;;;;4886542;28;20037;-55
2021/12/21 10:10:43;;;;;;;9.63;3.75;;;;;;;;;;4794964;29;25405;-51
2021/12/21 10:13:15;;;;;;;9.00;3.35;;;;;;;;;;4664077;29;20043;-50
2021/12/21 10:18:14;;;;;;;6.70;3.08;;;;;;;;;;5154803;27;20478;-49
2021/12/21 10:20:47;;;;;;;9.57;2.85;;;;;;;;;;5150653;27;20038;-51
2021/12/21 10:23:20;;;;;;;5.65;2.60;;;;;;;;;;5107052;27;20059;-49
2021/12/21 10:25:47;;;;;;;8.63;2.58;;;;;;;;;;5068842;28;20032;-44
2021/12/21 10:28:38;;;;;;;12.40;2.50;;;;;;;;;;5027189;28;20035;-49
2021/12/21 10:31:10;;;;;;;13.18;2.22;;;;;;;;;;4864618;29;20173;-48
2021/12/21 10:33:37;;;;;;;8.20;2.60;;;;;;;;;;4840971;29;20429;-47
2021/12/21 10:36:06;;;;;;;5.50;2.20;;;;;;;;;;4760144;29;20109;-45
2021/12/21 10:41:40;;;;;;;8.57;2.10;;;;;;;;;;5156188;27;20134;-49
2021/12/21 10:44:20;;;;;;;11.85;2.75;;;;;;;;;;5058380;28;20426;-46
2021/12/21 10:46:52;;;;;;;9.88;2.20;;;;;;;;;;5040168;28;20025;-49
2021/12/21 10:49:21;;;;;;;6.83;1.90;;;;;;;;;;5040640;28;21597;-46
2021/12/21 10:52:15;;;;;;;5.75;2.20;;;;;;;;;;5040587;28;20033;-48
2021/12/21 10:54:43;;;;;;;14.30;2.33;;;;;;;;;;5038758;28;20031;-47
2021/12/21 10:57:20;;;;;;;16.02;2.35;;;;;;;;;;5038858;28;20267;-48
2021/12/21 10:59:49;;;;;;;10.52;2.25;;;;;;;;;;5037713;28;20045;-47
2021/12/21 11:02:24;;;;;;;10.05;1.90;;;;;;;;;;5039636;28;20025;-49
2021/12/21 11:04:54;;;;;;;6.65;2.08;;;;;;;;;;5042644;28;20033;-51
2021/12/21 11:10:17;;;;;;;6.22;2.10;;;;;;;;;;5040471;28;20041;-48
2021/12/21 11:12:45;;;;;;;5.18;2.22;;;;;;;;;;5042323;28;20036;-50
2021/12/21 11:15:13;;;;;;;9.27;2.13;;;;;;;;;;5040227;28;20079;-46
2021/12/21 11:17:40;;;;;;;6.88;2.15;;;;;;;;;;5043090;28;20021;-49
2021/12/21 11:20:07;;;;;;;10.70;2.15;;;;;;;;;;5039449;28;20063;-49
2021/12/21 11:22:34;;;;;;;12.73;2.10;;;;;;;;;;5042308;28;20042;-50
2021/12/21 11:25:00;;;;;;;4.93;2.25;;;;;;;;;;5040161;28;20052;-47
2021/12/21 11:27:28;;;;;;;8.48;2.22;;;;;;;;;;5040344;28;20037;-49
2021/12/21 11:29:58;;;;;;;4.85;2.30;;;;;;;;;;5039670;28;20327;-50
2021/12/21 11:32:25;;;;;;;7.18;2.10;;;;;;;;;;5037682;28;20104;-49
2021/12/21 11:37:48;;;;;;;3.53;1.70;;;;;;;;;;5035860;28;20485;-49
2021/12/21 11:40:19;;;;;;;8.55;2.00;;;;;;;;;;5040187;28;20052;-53
2021/12/21 11:42:51;;;;;;;8.88;2.03;;;;;;;;;;5053306;28;20028;-48
2021/12/21 11:45:34;;;;;;;4.70;2.10;;;;;;;;;;5101171;28;20036;-46
2021/12/21 11:47:59;;;;;;;7.18;1.90;;;;;;;;;;5084926;28;20032;-46
2021/12/21 11:50:25;;;;;;;8.02;2.08;;;;;;;;;;5103623;28;20065;-48
2021/12/21 11:52:54;;;;;;;5.40;1.67;;;;;;;;;;5078474;28;20372;-48
2021/12/21 11:55:23;;;;;;;3.20;1.52;;;;;;;;;;4927715;28;20347;-47
2021/12/21 11:57:51;;;;;;;8.52;1.90;;;;;;;;;;4737142;29;20716;-46
2021/12/21 12:00:22;;;;;;;6.10;1.95;;;;;;;;;;4657942;30;20409;-51
2021/12/21 12:02:50;;;;;;;7.50;2.25;;;;;;;;;;4594612;30;20132;-47
2021/12/21 12:08:05;;;;;;;5.20;1.83;;;;;;;;;;5156956;27;20126;-48
2021/12/21 12:10:31;;;;;;;5.82;1.80;;;;;;;;;;5095006;27;20463;-52
2021/12/21 12:13:25;;;;;;;5.15;1.60;;;;;;;;;;5086444;27;20040;-47
2021/12/21 12:15:56;;;;;;;6.05;1.67;;;;;;;;;;5047568;28;20025;-47
2021/12/21 12:18:31;;;;;;;6.47;1.77;;;;;;;;;;4950186;28;20133;-49
2021/12/21 12:20:57;;;;;;;5.70;1.67;;;;;;;;;;4896525;29;20697;-53
2021/12/21 12:23:23;;;;;;;6.95;1.88;;;;;;;;;;4872987;29;20036;-47
2021/12/21 12:25:56;;;;;;;8.80;1.90;;;;;;;;;;4816541;29;20336;-50
2021/12/21 12:28:24;;;;;;;8.10;1.92;;;;;;;;;;4656829;30;20578;-44
2021/12/21 12:33:44;;;;;;;5.28;1.67;;;;;;;;;;5157745;27;20629;-50
2021/12/21 12:36:10;;;;;;;4.55;1.50;;;;;;;;;;5130591;27;20401;-52
2021/12/21 12:38:43;;;;;;;4.55;1.50;;;;;;;;;;5110386;27;20035;-49
2021/12/21 12:41:12;;;;;;;2.17;1.00;;;;;;;;;;5126773;27;20036;-45
2021/12/21 12:43:41;;;;;;;2.80;1.23;;;;;;;;;;5057042;27;20034;-49
2021/12/21 12:46:09;;;;;;;3.22;1.30;;;;;;;;;;4957176;28;20848;-49
2021/12/21 12:48:43;;;;;;;10.38;1.10;;;;;;;;;;4830440;29;20420;-48
2021/12/21 12:51:22;;;;;;;4.55;1.33;;;;;;;;;;4727921;29;20101;-51
2021/12/21 12:53:47;;;;;;;10.93;1.45;;;;;;;;;;4546937;30;20074;-47
2021/12/21 12:58:22;;;;;;;2.63;0.80;;;;;;;;;;5155298;27;20130;-50
2021/12/21 13:01:06;;;;;;;2.03;0.90;;;;;;;;;;5130243;27;20050;-49
2021/12/21 13:03:34;;;;;;;3.80;0.90;;;;;;;;;;5114773;27;20348;-51
2021/12/21 13:06:06;;;;;;;3.42;1.20;;;;;;;;;;5089762;28;20085;-49
2021/12/21 13:08:32;;;;;;;8.70;1.17;;;;;;;;;;5071405;28;20028;-52
2021/12/21 13:10:58;;;;;;;3.78;0.93;;;;;;;;;;4960149;28;20032;-53
2021/12/21 13:13:33;;;;;;;4.22;0.95;;;;;;;;;;4763302;29;20455;-50
2021/12/21 13:16:05;;;;;;;5.53;1.17;;;;;;;;;;4732624;29;20068;-51
2021/12/21 13:18:30;;;;;;;3.33;1.00;;;;;;;;;;4598459;30;20042;-54
2021/12/21 13:23:39;;;;;;;5.53;1.55;;;;;;;;;;5155845;27;20130;-51
2021/12/21 13:26:07;;;;;;;7.28;1.48;;;;;;;;;;5133443;27;20038;-51
2021/12/21 13:28:50;;;;;;;8.27;1.65;;;;;;;;;;5128037;27;20045;-52
2021/12/21 13:31:18;;;;;;;3.20;1.58;;;;;;;;;;5087089;28;20483;-47
2021/12/21 13:33:49;;;;;;;7.45;1.52;;;;;;;;;;5026575;28;20037;-51
2021/12/21 13:36:14;;;;;;;6.63;2.17;;;;;;;;;;4949597;28;20055;-50
2021/12/21 13:38:40;;;;;;;5.90;1.60;;;;;;;;;;4777105;29;20094;-47
2021/12/21 13:41:11;;;;;;;5.03;1.77;;;;;;;;;;4639552;30;20044;-52
2021/12/21 13:43:39;;;;;;;4.65;2.00;;;;;;;;;;4609428;30;20134;-47
2021/12/21 13:47:55;;;;;;;4.80;2.10;;;;;;;;;;5145966;27;20130;-49
2021/12/21 13:50:26;;;;;;;7.13;1.80;;;;;;;;;;5114721;27;20039;-49
2021/12/21 13:52:56;;;;;;;3.15;2.05;;;;;;;;;;5141483;27;20053;-54
2021/12/21 13:55:29;;;;;;;5.35;2.00;;;;;;;;;;5124032;27;20035;-50
2021/12/21 13:57:56;;;;;;;3.63;2.03;;;;;;;;;;5032131;28;20169;-54
2021/12/21 14:00:27;;;;;;;7.35;2.30;;;;;;;;;;4949733;28;20353;-51
2021/12/21 14:03:03;;;;;;;6.80;2.30;;;;;;;;;;4870862;29;20138;-51
2021/12/21 14:05:42;;;;;;;7.43;2.53;;;;;;;;;;4742206;29;21501;-51
2021/12/21 14:08:07;;;;;;;7.80;2.70;;;;;;;;;;4656918;30;20146;-52
2021/12/21 14:13:25;;;;;;;9.15;2.55;;;;;;;;;;5114200;27;20127;-49
2021/12/21 14:15:51;;;;;;;6.93;2.88;;;;;;;;;;5088620;28;20032;-51
2021/12/21 14:18:20;;;;;;;11.35;2.47;;;;;;;;;;5073854;28;20091;-48
2021/12/21 14:20:48;;;;;;;8.00;2.60;;;;;;;;;;5013690;28;20029;-47
2021/12/21 14:23:18;;;;;;;11.10;2.30;;;;;;;;;;4969679;28;20035;-47
2021/12/21 14:25:43;;;;;;;6.75;2.25;;;;;;;;;;4875867;29;20029;-49
2021/12/21 14:28:10;;;;;;;4.80;2.47;;;;;;;;;;4830811;29;20049;-49
2021/12/21 14:30:36;;;;;;;6.95;2.78;;;;;;;;;;4734047;29;20049;-47
2021/12/21 14:33:20;;;;;;;5.40;2.50;;;;;;;;;;4641429;30;20047;-49
2021/12/21 14:35:46;;;;;;;6.15;3.00;;;;;;;;;;4531646;31;20053;-51
2021/12/21 14:40:50;;;;;;;11.18;2.70;;;;;;;;;;5097801;27;1288356;-47
2021/12/21 14:43:33;;;;;;;8.10;2.63;;;;;;;;;;5096306;28;20466;-48
2021/12/21 14:45:59;;;;;;;12.32;3.13;;;;;;;;;;5096249;28;20035;-46
2021/12/21 14:48:28;;;;;;;6.05;2.75;;;;;;;;;;5097364;28;20092;-52
2021/12/21 14:51:07;;;;;;;9.35;3.05;;;;;;;;;;5094630;28;20036;-54
2021/12/21 14:53:44;;;;;;;9.65;2.85;;;;;;;;;;5098206;28;20035;-49
2021/12/21 14:56:12;;;;;;;3.80;2.40;;;;;;;;;;5092687;28;20036;-48
2021/12/21 14:58:38;;;;;;;6.30;2.65;;;;;;;;;;5098997;28;20043;-48
2021/12/21 15:01:05;;;;;;;5.43;2.28;;;;;;;;;;5096628;28;20086;-48
2021/12/21 15:03:41;;;;;;;13.18;2.90;;;;;;;;;;5098584;28;20057;-49
2021/12/21 15:06:07;;;;;;;7.60;2.20;;;;;;;;;;5097978;28;20091;-48
2021/12/21 15:08:33;;;;;;;4.55;2.03;;;;;;;;;;5095773;28;20598;-48
2021/12/21 15:10:59;;;;;;;6.50;2.80;;;;;;;;;;5098339;28;20380;-46
2021/12/21 15:13:25;;;;;;;7.18;3.03;;;;;;;;;;5094014;28;20039;-51
2021/12/21 15:15:51;;;;;;;6.80;2.90;;;;;;;;;;5090905;28;20058;-47
2021/12/21 15:18:17;;;;;;;4.90;2.38;;;;;;;;;;5044975;28;20023;-46
2021/12/21 15:20:43;;;;;;;3.63;2.05;;;;;;;;;;313355;28;10022475;-46
2021/12/21 15:23:10;;;;;;;4.93;2.78;;;;;;;;;;5060039;28;20107;-51
2021/12/21 15:25:37;;;;;;;9.25;2.60;;;;;;;;;;5058719;28;20025;-48
2021/12/21 15:28:03;;;;;;;7.70;2.42;;;;;;;;;;5059908;28;20036;-47
2021/12/21 15:30:28;;;;;;;4.28;2.50;;;;;;;;;;5058980;28;20547;-50
2021/12/21 15:32:55;;;;;;;8.10;2.58;;;;;;;;;;5061389;28;20863;-46
2021/12/21 15:35:24;;;;;;;9.13;2.60;;;;;;;;;;5058703;28;20043;-47
2021/12/21 15:37:49;;;;;;;5.20;2.60;;;;;;;;;;5059594;28;20025;-46
2021/12/21 15:40:18;;;;;;;6.47;2.40;;;;;;;;;;5058458;28;20491;-52
2021/12/21 15:42:44;;;;;;;6.45;2.70;;;;;;;;;;5069396;28;20028;-46
2021/12/21 15:45:12;;;;;;;7.82;2.50;;;;;;;;;;5060222;28;20045;-50
2021/12/21 15:47:37;;;;;;;3.95;2.50;;;;;;;;;;5056816;28;20104;-50
2021/12/21 15:50:06;;;;;;;11.77;2.83;;;;;;;;;;5057366;28;20108;-48
2021/12/21 15:52:33;;;;;;;11.70;2.75;;;;;;;;;;5044908;28;20040;-50
2021/12/21 15:54:58;;;;;;;3.47;2.25;;;;;;;;;;5047101;28;20484;-51
2021/12/21 15:57:24;;;;;;;7.25;2.75;;;;;;;;;;5045707;28;20024;-50
2021/12/21 15:59:50;;;;;;;4.65;2.08;;;;;;;;;;5045746;28;20044;-48
2021/12/21 16:02:19;;;;;;;6.55;2.40;;;;;;;;;;5045164;28;20485;-48
2021/12/21 16:04:50;;;;;;;5.05;2.33;;;;;;;;;;5032071;28;20059;-49
2021/12/21 16:07:18;;;;;;;11.65;2.60;;;;;;;;;;5044179;28;20245;-48
2021/12/21 16:09:44;;;;;;;6.25;2.42;;;;;;;;;;5045075;28;20485;-46
2021/12/21 16:12:10;;;;;;;7.65;2.20;;;;;;;;;;5045228;28;20029;-48
2021/12/21 16:14:36;;;;;;;6.85;2.33;;;;;;;;;;5047103;28;20047;-48
2021/12/21 16:17:02;;;;;;;8.10;2.42;;;;;;;;;;5046137;28;20118;-49
2021/12/21 16:19:28;;;;;;;7.00;2.70;;;;;;;;;;5045699;28;20021;-50
2021/12/21 16:21:54;;;;;;;9.68;2.20;;;;;;;;;;5046689;28;20451;-50
2021/12/21 16:24:21;;;;;;;8.85;2.65;;;;;;;;;;5045034;28;20047;-48
2021/12/21 16:26:48;;;;;;;5.28;2.50;;;;;;;;;;5044317;28;20037;-48
2021/12/21 16:29:14;;;;;;;4.80;2.45;;;;;;;;;;5045808;28;20028;-49
2021/12/21 16:31:39;;;;;;;7.00;2.33;;;;;;;;;;5033337;28;20033;-47
2021/12/21 16:34:05;;;;;;;8.10;2.75;;;;;;;;;;5046326;28;20041;-49
2021/12/21 16:36:32;;;;;;;5.50;2.95;;;;;;;;;;5044557;28;20052;-46
2021/12/21 16:39:00;;;;;;;9.82;3.30;;;;;;;;;;5045613;28;20068;-52
2021/12/21 16:41:26;;;;;;;6.60;3.10;;;;;;;;;;5043767;28;20386;-47
2021/12/21 16:43:59;;;;;;;7.00;2.80;;;;;;;;;;5035194;28;20032;-50
2021/12/21 16:46:24;;;;;;;13.75;3.50;;;;;;;;;;5045447;28;20040;-48